Time;durP1;ratioP1;P1;durP2;ratioP2;P2;SDS_P1;SDS_P2;PMS_P1;PMS_P2;Temp;Humidity;BMP_temperature;BMP_pressure;BME280_temperature;BME280_humidity;BME280_pressure;Samples;Min_cycle;Max_cycle;Signal;HPM_P1;HPM_P2
2022/03/22 00:02:01;;;;;;;16.13;12.27;;;21.20;77.40;;;;;;5038895;27;95982;-63
2022/03/22 00:04:31;;;;;;;18.52;12.68;;;21.30;77.40;;;;;;5040662;27;96032;-63
2022/03/22 00:07:03;;;;;;;19.35;12.88;;;21.20;76.80;;;;;;5042690;27;95842;-63
2022/03/22 00:09:33;;;;;;;14.20;11.88;;;21.30;77.40;;;;;;5036330;27;95962;-63
2022/03/22 00:12:05;;;;;;;17.30;11.87;;;21.20;77.10;;;;;;5040731;27;95312;-64
2022/03/22 00:14:36;;;;;;;16.25;12.43;;;21.20;77.80;;;;;;5021605;27;98666;-65
2022/03/22 00:17:29;;;;;;;25.67;13.55;;;21.30;78.00;;;;;;5032598;27;95837;-62
2022/03/22 00:19:59;;;;;;;;;;;21.30;77.60;;;;;;5041301;27;95900;-63
2022/03/22 00:22:29;;;;;;;18.95;12.73;;;21.50;77.20;;;;;;5040658;27;95907;-63
2022/03/22 00:25:00;;;;;;;14.98;12.95;;;21.50;76.80;;;;;;5038585;27;95879;-63
2022/03/22 00:27:50;;;;;;;17.50;12.52;;;21.50;76.50;;;;;;5046832;27;96220;-60
2022/03/22 00:30:25;;;;;;;18.73;13.67;;;21.60;76.40;;;;;;5027784;27;98027;-62
2022/03/22 00:32:58;;;;;;;19.45;13.52;;;21.60;76.40;;;;;;5043567;27;96046;-64
2022/03/22 00:35:35;;;;;;;17.88;13.18;;;21.60;76.30;;;;;;5040004;27;96131;-63
2022/03/22 00:38:08;;;;;;;14.75;12.90;;;21.70;76.20;;;;;;5032141;27;95768;-64
2022/03/22 00:40:43;;;;;;;16.27;13.63;;;21.80;76.30;;;;;;5044729;27;95966;-61
2022/03/22 00:43:14;;;;;;;19.20;14.82;;;21.90;76.10;;;;;;5045892;27;95578;-63
2022/03/22 00:45:47;;;;;;;21.45;15.88;;;21.90;76.20;;;;;;5039425;27;96504;-63
2022/03/22 00:48:18;;;;;;;17.45;14.52;;;22.00;76.00;;;;;;5044214;27;95925;-64
2022/03/22 00:50:50;;;;;;;19.55;17.52;;;22.00;76.00;;;;;;5040033;27;95672;-63
2022/03/22 00:53:21;;;;;;;19.25;17.25;;;22.00;75.80;;;;;;5043197;27;95933;-63
2022/03/22 00:55:52;;;;;;;23.38;17.55;;;22.10;75.80;;;;;;5033344;27;96733;-66
2022/03/22 00:58:23;;;;;;;19.58;17.52;;;22.10;75.80;;;;;;5036326;27;95942;-62
2022/03/22 01:00:55;;;;;;;21.13;18.77;;;22.20;75.60;;;;;;5017575;27;95968;-62
2022/03/22 01:03:28;;;;;;;21.20;16.65;;;22.20;75.60;;;;;;5054690;27;95852;-63
2022/03/22 01:06:01;;;;;;;19.88;17.35;;;22.20;75.60;;;;;;5069207;27;96253;-64
2022/03/22 01:08:32;;;;;;;19.63;17.02;;;22.20;75.50;;;;;;5048754;27;95887;-62
2022/03/22 01:11:03;;;;;;;18.85;15.90;;;22.20;75.40;;;;;;5064712;27;98969;-62
2022/03/22 01:13:33;;;;;;;;;;;22.30;74.80;;;;;;5058051;27;95295;-62
2022/03/22 01:16:04;;;;;;;19.77;17.55;;;22.30;75.20;;;;;;5041897;27;95779;-63
2022/03/22 01:18:36;;;;;;;20.80;17.05;;;22.30;75.00;;;;;;5065843;27;95570;-63
2022/03/22 01:21:05;;;;;;;19.73;17.33;;;22.40;75.00;;;;;;5064333;27;95857;-62
2022/03/22 01:23:36;;;;;;;18.92;17.08;;;22.50;74.90;;;;;;5065563;27;96325;-63
2022/03/22 01:26:06;;;;;;;19.43;17.37;;;22.60;74.90;;;;;;5063440;27;95911;-63
2022/03/22 01:28:37;;;;;;;;;;;22.60;74.80;;;;;;5063667;27;95736;-64
2022/03/22 01:31:08;;;;;;;18.10;16.27;;;22.70;74.60;;;;;;5057300;27;96210;-61
2022/03/22 01:33:41;;;;;;;19.23;17.25;;;22.70;74.40;;;;;;5044644;27;95863;-62
2022/03/22 01:36:13;;;;;;;20.60;17.17;;;22.80;74.40;;;;;;5065130;27;95909;-61
2022/03/22 01:38:46;;;;;;;20.30;18.17;;;22.80;74.30;;;;;;5059352;27;95699;-62
2022/03/22 01:41:17;;;;;;;20.20;17.02;;;22.90;74.20;;;;;;5059955;27;95368;-62
2022/03/22 01:43:49;;;;;;;20.38;16.58;;;22.90;74.00;;;;;;5070194;27;95811;-61
2022/03/22 01:46:25;;;;;;;19.47;17.43;;;22.90;74.10;;;;;;5024497;27;97854;-64
2022/03/22 01:48:57;;;;;;;19.08;17.08;;;22.90;74.00;;;;;;5038863;27;96061;-66
2022/03/22 01:51:32;;;;;;;18.80;16.80;;;22.90;73.90;;;;;;5046577;27;95685;-64
2022/03/22 01:54:03;;;;;;;19.08;17.17;;;23.00;73.90;;;;;;5029534;27;95734;-62
2022/03/22 01:56:36;;;;;;;18.30;16.40;;;23.00;73.90;;;;;;5044067;27;97164;-63
2022/03/22 01:59:07;;;;;;;18.08;16.10;;;23.00;73.80;;;;;;5042486;27;96006;-62
2022/03/22 02:07:18;;;;;;;23.70;19.05;;;23.10;73.60;;;;;;5040381;27;95916;-61
2022/03/22 02:09:50;;;;;;;26.10;19.23;;;23.20;73.50;;;;;;5037652;27;95643;-61
2022/03/22 02:12:21;;;;;;;22.08;18.80;;;23.20;73.50;;;;;;5043686;27;95965;-61
2022/03/22 02:14:52;;;;;;;21.67;17.55;;;23.20;73.50;;;;;;5032925;27;99549;-63
2022/03/22 02:17:23;;;;;;;22.10;17.40;;;23.20;73.50;;;;;;5028888;27;95985;-61
2022/03/22 02:19:53;;;;;;;;;;;23.20;73.40;;;;;;5045743;27;95781;-61
2022/03/22 02:22:37;;;;;;;18.98;15.68;;;23.20;73.40;;;;;;5047607;27;95961;-61
2022/03/22 02:25:15;;;;;;;21.38;15.00;;;23.20;73.40;;;;;;5027133;27;95813;-61
2022/03/22 02:27:53;;;;;;;18.00;14.50;;;23.20;73.30;;;;;;5042328;27;96413;-61
2022/03/22 02:30:25;;;;;;;18.65;15.10;;;23.20;73.20;;;;;;5020252;27;95946;-63
2022/03/22 02:32:56;;;;;;;;;;;23.20;73.20;;;;;;5062383;27;95328;-61
2022/03/22 02:35:28;;;;;;;16.52;14.73;;;23.30;73.20;;;;;;5068352;27;95858;-60
2022/03/22 02:38:00;;;;;;;17.67;13.70;;;23.30;73.20;;;;;;5057036;27;95963;-61
2022/03/22 02:40:30;;;;;;;17.15;14.52;;;23.20;73.10;;;;;;5062927;27;95516;-62
2022/03/22 02:43:02;;;;;;;16.85;13.05;;;23.30;73.20;;;;;;5059798;27;96004;-60
2022/03/22 02:45:33;;;;;;;15.93;13.70;;;23.30;73.20;;;;;;5056919;27;98574;-63
2022/03/22 02:48:03;;;;;;;18.33;13.35;;;23.30;73.30;;;;;;5040718;27;95941;-61
2022/03/22 02:50:33;;;;;;;19.85;13.88;;;23.20;73.20;;;;;;5039210;27;95410;-63
2022/03/22 02:53:04;;;;;;;15.07;13.60;;;23.20;73.30;;;;;;5041910;27;95815;-62
2022/03/22 02:55:35;;;;;;;;;;;23.30;73.30;;;;;;5038857;27;95236;-60
2022/03/22 02:58:06;;;;;;;18.35;12.55;;;23.20;73.20;;;;;;5036806;27;96020;-60
2022/03/22 03:00:37;;;;;;;13.35;12.00;;;23.20;73.30;;;;;;5029418;27;95470;-63
2022/03/22 03:03:08;;;;;;;13.27;11.98;;;23.20;73.20;;;;;;5029901;27;95592;-61
2022/03/22 03:05:39;;;;;;;15.18;11.98;;;23.20;73.20;;;;;;5042225;27;95466;-62
2022/03/22 03:08:11;;;;;;;11.93;10.57;;;23.20;73.30;;;;;;5043988;27;96636;-61
2022/03/22 03:10:43;;;;;;;12.95;11.57;;;23.30;73.30;;;;;;5036273;27;95941;-63
2022/03/22 03:13:14;;;;;;;12.70;11.02;;;23.20;73.20;;;;;;5038916;27;96196;-63
2022/03/22 03:15:47;;;;;;;12.07;10.60;;;23.30;73.40;;;;;;5019781;27;95922;-59
2022/03/22 03:18:20;;;;;;;12.95;11.32;;;23.30;73.40;;;;;;5025389;27;96516;-63
2022/03/22 03:20:50;;;;;;;14.80;11.07;;;23.30;73.30;;;;;;5022153;27;95424;-62
2022/03/22 03:23:21;;;;;;;11.60;10.40;;;23.30;73.30;;;;;;5028004;27;95759;-64
2022/03/22 03:25:52;;;;;;;15.07;10.63;;;23.30;73.30;;;;;;5031868;27;96026;-64
2022/03/22 03:28:22;;;;;;;11.27;10.07;;;23.30;73.30;;;;;;5012135;27;96370;-63
2022/03/22 03:30:53;;;;;;;13.25;9.65;;;23.40;73.30;;;;;;5024471;27;95698;-61
2022/03/22 03:33:24;;;;;;;14.10;10.83;;;23.40;73.20;;;;;;5046195;27;95753;-59
2022/03/22 03:35:56;;;;;;;;;;;23.40;73.30;;;;;;5043688;27;95797;-61
2022/03/22 03:38:27;;;;;;;15.65;11.52;;;23.40;73.20;;;;;;5043594;27;96442;-59
2022/03/22 03:43:47;;;;;;;14.45;10.25;;;23.40;73.00;;;;;;5029729;27;95848;-60
2022/03/22 03:49:08;;;;;;;12.90;9.15;;;23.40;73.30;;;;;;5040125;27;96247;-62
2022/03/22 03:51:38;;;;;;;11.70;10.52;;;23.40;73.30;;;;;;5038764;27;96276;-61
2022/03/22 03:54:07;;;;;;;17.33;8.52;;;23.40;73.30;;;;;;5062979;27;95866;-60
2022/03/22 03:56:38;;;;;;;14.25;9.93;;;23.40;73.40;;;;;;5042953;27;95912;-62
2022/03/22 03:59:09;;;;;;;11.52;8.75;;;23.40;73.20;;;;;;5041298;27;96054;-60
2022/03/22 04:01:40;;;;;;;;;;;23.40;73.20;;;;;;5022223;27;97587;-64
2022/03/22 04:04:11;;;;;;;9.88;5.72;;;23.30;72.90;;;;;;5041504;27;95627;-63
2022/03/22 04:06:43;;;;;;;;;;;22.80;72.40;;;;;;5037868;27;96038;-57
2022/03/22 04:09:18;;;;;;;13.52;4.97;;;22.80;73.50;;;;;;5036942;27;95800;-63
2022/03/22 04:11:48;;;;;;;10.25;4.63;;;22.70;73.40;;;;;;5041619;27;95803;-64
2022/03/22 04:14:19;;;;;;;13.10;4.65;;;22.10;73.20;;;;;;5037684;27;95870;-59
2022/03/22 04:16:50;;;;;;;10.27;4.18;;;22.10;73.60;;;;;;5022313;27;96154;-63
2022/03/22 04:19:22;;;;;;;11.23;5.03;;;22.00;72.60;;;;;;5033969;27;95895;-62
2022/03/22 04:21:54;;;;;;;;;;;22.10;73.00;;;;;;5026023;27;97440;-63
2022/03/22 04:24:24;;;;;;;9.25;3.85;;;22.10;74.80;;;;;;5038430;27;95995;-63
2022/03/22 04:32:41;;;;;;;;;;;22.00;73.30;;;;;;5037117;27;96091;-62
2022/03/22 04:32:44;;;;;;;6.15;3.80;;;21.70;73.80;;;;;;5030541;27;96123;-64
2022/03/22 04:35:20;;;;;;;8.43;4.80;;;21.60;74.60;;;;;;5037917;27;95702;-62
2022/03/22 04:37:55;;;;;;;8.32;3.63;;;21.80;74.90;;;;;;5041848;27;95781;-66
2022/03/22 04:40:26;;;;;;;8.10;4.15;;;21.70;75.20;;;;;;5028608;27;96892;-62
2022/03/22 04:42:57;;;;;;;6.57;4.18;;;21.70;75.30;;;;;;5029637;27;95593;-64
2022/03/22 04:45:30;;;;;;;8.20;3.70;;;21.70;74.30;;;;;;5025764;27;96397;-63
2022/03/22 04:48:00;;;;;;;5.18;3.53;;;21.60;74.80;;;;;;5066469;27;95891;-64
2022/03/22 04:50:30;;;;;;;10.57;4.03;;;21.60;74.70;;;;;;5065825;27;96787;-68
2022/03/22 04:56:43;;;;;;;12.82;4.20;;;21.60;75.40;;;;;;5053222;27;95977;-62
2022/03/22 04:58:40;;;;;;;8.32;3.58;;;21.50;75.50;;;;;;5062383;27;95391;-64
2022/03/22 05:01:14;;;;;;;7.32;3.75;;;21.20;77.50;;;;;;5054799;27;97592;-63
2022/03/22 05:03:46;;;;;;;11.95;4.28;;;21.20;78.50;;;;;;5065176;27;96620;-65
2022/03/22 05:06:27;;;;;;;10.07;3.80;;;21.30;78.80;;;;;;5060749;27;95813;-64
2022/03/22 05:08:57;;;;;;;8.05;3.25;;;21.40;77.80;;;;;;5064033;27;95513;-65
2022/03/22 05:11:30;;;;;;;;;;;21.50;77.20;;;;;;5062161;27;97364;-64
2022/03/22 05:14:02;;;;;;;9.82;3.42;;;21.40;76.70;;;;;;5063988;27;95957;-63
2022/03/22 05:16:34;;;;;;;10.13;3.65;;;21.30;77.60;;;;;;5044902;27;95901;-63
2022/03/22 05:19:05;;;;;;;10.98;4.03;;;21.30;77.90;;;;;;5062778;27;95797;-63
2022/03/22 05:21:36;;;;;;;7.57;3.28;;;21.30;78.10;;;;;;5062770;27;96542;-63
2022/03/22 05:24:07;;;;;;;10.15;3.08;;;21.30;78.50;;;;;;5067327;27;95347;-63
2022/03/22 05:26:38;;;;;;;7.57;3.40;;;21.00;79.10;;;;;;5065866;27;97062;-62
2022/03/22 05:29:09;;;;;;;5.85;2.85;;;21.10;78.40;;;;;;5062443;27;95617;-62
2022/03/22 05:31:39;;;;;;;10.30;3.67;;;21.00;76.70;;;;;;5059687;27;97907;-63
2022/03/22 05:34:12;;;;;;;10.25;3.55;;;21.10;78.40;;;;;;5047995;27;95847;-62
2022/03/22 05:36:43;;;;;;;7.70;3.17;;;21.10;78.60;;;;;;5065440;27;95890;-63
2022/03/22 05:39:15;;;;;;;11.57;3.63;;;21.00;79.10;;;;;;5065137;27;96028;-63
2022/03/22 05:41:48;;;;;;;9.55;3.33;;;21.10;78.80;;;;;;5064983;27;96491;-61
2022/03/22 05:44:21;;;;;;;;;;;21.00;77.50;;;;;;5068198;27;95835;-63
2022/03/22 05:46:51;;;;;;;7.07;2.88;;;21.00;77.30;;;;;;5057355;27;97400;-62
2022/03/22 05:49:22;;;;;;;9.68;3.47;;;21.00;77.70;;;;;;5067582;27;95770;-64
2022/03/22 05:51:53;;;;;;;6.40;3.00;;;20.70;78.70;;;;;;5063203;27;96084;-63
2022/03/22 05:54:23;;;;;;;13.63;3.27;;;20.80;79.20;;;;;;5065424;27;95925;-64
2022/03/22 05:56:53;;;;;;;8.13;3.33;;;20.80;79.90;;;;;;5064878;27;97854;-62
2022/03/22 05:59:24;;;;;;;8.75;3.40;;;20.80;78.60;;;;;;5046086;27;95616;-66
2022/03/22 06:01:54;;;;;;;8.98;2.50;;;20.70;77.70;;;;;;5052966;27;95395;-64
2022/03/22 06:04:25;;;;;;;7.80;3.27;;;20.70;78.70;;;;;;5058857;27;95501;-61
2022/03/22 06:06:56;;;;;;;;;;;20.80;79.80;;;;;;5060421;27;96940;-61
2022/03/22 06:09:27;;;;;;;8.13;2.50;;;20.80;78.70;;;;;;5064687;27;95549;-63
2022/03/22 06:11:58;;;;;;;6.30;2.80;;;20.80;78.90;;;;;;5039081;27;95893;-63
2022/03/22 06:14:28;;;;;;;;;;;20.80;78.60;;;;;;5060487;27;96127;-63
2022/03/22 06:17:00;;;;;;;7.97;2.90;;;20.90;78.20;;;;;;5049790;27;95919;-62
2022/03/22 06:19:32;;;;;;;4.82;2.80;;;20.80;78.70;;;;;;5065362;27;96917;-63
2022/03/22 06:22:05;;;;;;;7.15;2.75;;;20.80;78.50;;;;;;5038269;27;95935;-63
2022/03/22 06:24:36;;;;;;;7.85;2.40;;;20.70;78.10;;;;;;5062792;27;95708;-61
2022/03/22 06:27:11;;;;;;;14.63;3.25;;;20.70;79.00;;;;;;5062976;27;95367;-63
2022/03/22 06:29:41;;;;;;;;;;;20.60;74.80;;;;;;5067814;27;95713;-63
2022/03/22 06:32:12;;;;;;;7.65;2.72;;;20.60;79.30;;;;;;5044409;27;97208;-62
2022/03/22 06:34:44;;;;;;;7.75;2.38;;;20.30;80.70;;;;;;5044817;27;95848;-63
2022/03/22 06:37:16;;;;;;;9.82;2.92;;;20.40;80.70;;;;;;5040893;27;96125;-62
2022/03/22 06:39:47;;;;;;;8.50;3.40;;;20.30;80.30;;;;;;5046509;27;96098;-61
2022/03/22 06:42:17;;;;;;;9.98;2.90;;;20.70;79.40;;;;;;5040220;27;96155;-63
2022/03/22 06:44:49;;;;;;;9.80;2.85;;;20.20;78.60;;;;;;5035122;27;95929;-62
2022/03/22 06:47:19;;;;;;;7.53;2.90;;;19.90;80.80;;;;;;5029693;27;95401;-62
2022/03/22 06:49:49;;;;;;;8.82;2.90;;;20.20;81.50;;;;;;5043776;27;96026;-64
2022/03/22 06:52:19;;;;;;;12.70;3.72;;;20.40;80.30;;;;;;5037033;27;96286;-63
2022/03/22 06:54:49;;;;;;;10.63;2.63;;;20.00;81.00;;;;;;5017934;27;98264;-63
2022/03/22 06:57:21;;;;;;;;;;;20.00;81.80;;;;;;5025591;27;95542;-63
2022/03/22 06:59:52;;;;;;;6.45;2.72;;;20.10;81.80;;;;;;5042663;27;95429;-63
2022/03/22 07:02:23;;;;;;;8.32;3.75;;;20.00;82.50;;;;;;5025265;27;96879;-64
2022/03/22 07:04:53;;;;;;;9.13;2.57;;;20.10;82.00;;;;;;5020549;27;96083;-64
2022/03/22 07:07:25;;;;;;;8.35;2.78;;;20.00;81.90;;;;;;5032128;27;96561;-64
2022/03/22 07:09:56;;;;;;;8.98;2.78;;;20.00;82.40;;;;;;5038624;27;95902;-65
2022/03/22 07:12:27;;;;;;;11.75;3.22;;;20.00;83.20;;;;;;5042314;27;95820;-63
2022/03/22 07:14:58;;;;;;;11.63;3.63;;;19.60;83.20;;;;;;5027914;27;98417;-64
2022/03/22 07:17:30;;;;;;;7.93;2.50;;;19.60;84.30;;;;;;5032766;27;97610;-64
2022/03/22 07:20:01;;;;;;;10.20;3.55;;;19.80;83.90;;;;;;5034324;27;95788;-64
2022/03/22 07:22:32;;;;;;;9.88;3.00;;;19.50;83.10;;;;;;5035235;27;96580;-63
2022/03/22 07:25:03;;;;;;;7.13;3.03;;;19.40;84.80;;;;;;5040035;27;95750;-64
2022/03/22 07:27:36;;;;;;;;;;;19.50;85.10;;;;;;5044171;27;95760;-62
2022/03/22 07:30:11;;;;;;;8.57;3.15;;;19.40;84.10;;;;;;5029289;27;96128;-63
2022/03/22 07:32:45;;;;;;;8.40;2.60;;;19.50;84.50;;;;;;5062592;27;95906;-64
2022/03/22 07:35:19;;;;;;;4.90;3.15;;;19.60;84.50;;;;;;5061948;27;98388;-62
2022/03/22 07:37:52;;;;;;;8.20;3.08;;;19.70;84.50;;;;;;5017749;27;95805;-63
2022/03/22 07:40:22;;;;;;;8.52;2.90;;;19.70;84.00;;;;;;5059192;27;95242;-62
2022/03/22 07:42:53;;;;;;;9.20;2.58;;;19.70;84.90;;;;;;5065139;27;95841;-66
2022/03/22 07:45:24;;;;;;;;;;;19.80;84.40;;;;;;5040742;27;95717;-67
2022/03/22 07:47:53;;;;;;;7.05;2.88;;;19.90;83.80;;;;;;5041522;27;96134;-62
2022/03/22 07:53:15;;;;;;;6.65;3.03;;;20.00;83.00;;;;;;5041192;27;95859;-65
2022/03/22 07:55:45;;;;;;;9.68;3.65;;;19.80;83.50;;;;;;5042991;27;95933;-67
2022/03/22 07:58:16;;;;;;;;;;;19.80;84.10;;;;;;5038167;27;96524;-65
2022/03/22 08:00:47;;;;;;;8.38;3.97;;;19.90;83.60;;;;;;5042375;27;95285;-66
2022/03/22 08:03:18;;;;;;;9.27;4.97;;;19.80;84.70;;;;;;5039367;27;96763;-63
2022/03/22 08:05:49;;;;;;;15.77;6.55;;;19.80;84.20;;;;;;5044215;27;97432;-62
2022/03/22 08:08:21;;;;;;;14.82;8.65;;;19.80;83.40;;;;;;5020907;27;95270;-63
2022/03/22 08:11:07;;;;;;;14.82;8.45;;;19.70;84.20;;;;;;5025275;27;95815;-60
2022/03/22 08:13:40;;;;;;;18.90;9.50;;;19.30;86.10;;;;;;5036787;27;95921;-64
2022/03/22 08:16:11;;;;;;;20.15;8.43;;;19.10;87.10;;;;;;5015484;27;96489;-60
2022/03/22 08:18:42;;;;;;;;;;;19.20;86.60;;;;;;5044075;27;95653;-63
2022/03/22 08:21:11;;;;;;;17.85;9.00;;;19.40;85.70;;;;;;5041952;27;97329;-63
2022/03/22 08:23:41;;;;;;;17.80;7.85;;;19.50;85.40;;;;;;5045432;27;96383;-62
2022/03/22 08:26:13;;;;;;;16.88;7.38;;;19.50;85.80;;;;;;5040912;27;96249;-63
2022/03/22 08:28:46;;;;;;;13.10;6.07;;;19.60;85.00;;;;;;5044830;27;95218;-64
2022/03/22 08:31:16;;;;;;;14.88;5.68;;;19.70;84.90;;;;;;5030303;27;95903;-63
2022/03/22 08:33:47;;;;;;;13.18;4.57;;;19.80;84.50;;;;;;5040936;27;97038;-58
2022/03/22 08:36:20;;;;;;;9.85;4.88;;;20.10;84.00;;;;;;5035693;27;95624;-61
2022/03/22 08:38:51;;;;;;;8.73;4.13;;;20.50;82.30;;;;;;5042023;27;95671;-58
2022/03/22 08:41:22;;;;;;;9.57;4.15;;;20.90;80.70;;;;;;5040410;27;96573;-59
2022/03/22 08:43:53;;;;;;;;;;;21.10;79.80;;;;;;5038967;27;96868;-61
2022/03/22 08:46:24;;;;;;;7.23;4.07;;;21.30;79.00;;;;;;5034914;27;96273;-58
2022/03/22 08:48:55;;;;;;;6.28;4.18;;;21.40;78.20;;;;;;5032996;27;96220;-62
2022/03/22 08:51:26;;;;;;;8.82;4.68;;;21.50;78.00;;;;;;5046994;27;95639;-63
2022/03/22 08:53:56;;;;;;;8.90;4.13;;;21.60;77.60;;;;;;5046907;27;96396;-60
2022/03/22 08:56:27;;;;;;;4.82;3.30;;;21.60;77.20;;;;;;5044740;27;95999;-59
2022/03/22 08:59:00;;;;;;;9.20;3.60;;;21.60;77.00;;;;;;5047314;27;95739;-58
2022/03/22 09:01:34;;;;;;;7.20;4.22;;;21.70;76.80;;;;;;5032192;27;95808;-64
2022/03/22 09:06:55;;;;;;;7.18;3.92;;;21.80;76.60;;;;;;5044849;27;96164;-63
2022/03/22 09:09:29;;;;;;;11.60;3.65;;;21.80;77.00;;;;;;5056697;27;98265;-60
2022/03/22 09:11:59;;;;;;;6.57;3.00;;;21.80;77.10;;;;;;5060977;27;95594;-61
2022/03/22 09:14:31;;;;;;;6.57;2.25;;;21.80;77.10;;;;;;5043724;27;98863;-61
2022/03/22 09:17:02;;;;;;;4.55;2.63;;;21.60;74.30;;;;;;5037293;27;96051;-67
2022/03/22 09:19:36;;;;;;;4.57;2.00;;;21.30;76.20;;;;;;5045789;27;96027;-69
2022/03/22 09:22:28;;;;;;;6.38;1.90;;;21.00;75.30;;;;;;5050258;27;97236;-68
2022/03/22 09:24:58;;;;;;;;;;;20.20;77.20;;;;;;5061505;27;95882;-68
2022/03/22 09:27:30;;;;;;;5.40;2.07;;;20.30;78.90;;;;;;5058350;27;95688;-68
2022/03/22 09:30:01;;;;;;;6.60;2.10;;;20.10;77.80;;;;;;5068442;27;95745;-61
2022/03/22 09:32:31;;;;;;;5.47;1.35;;;19.80;78.90;;;;;;5055151;27;96198;-68
2022/03/22 09:35:06;;;;;;;4.18;1.58;;;19.60;80.20;;;;;;5061001;27;96009;-70
2022/03/22 09:37:43;;;;;;;4.35;1.50;;;19.40;80.80;;;;;;5059025;27;95976;-68
2022/03/22 09:40:17;;;;;;;3.85;1.50;;;19.50;81.60;;;;;;5064654;27;95266;-68
2022/03/22 09:42:48;;;;;;;2.13;1.40;;;19.30;82.00;;;;;;5066495;27;95373;-63
2022/03/22 09:45:24;;;;;;;3.03;1.30;;;18.90;82.60;;;;;;5061182;27;95947;-64
2022/03/22 09:47:56;;;;;;;3.70;1.77;;;19.20;82.90;;;;;;5059823;27;101875;-64
2022/03/22 09:53:18;;;;;;;5.53;1.52;;;19.50;81.20;;;;;;5063739;27;98572;-60
2022/03/22 09:55:49;;;;;;;5.45;1.40;;;19.60;81.00;;;;;;5046694;27;98484;-65
2022/03/22 09:58:21;;;;;;;3.95;1.33;;;19.70;80.60;;;;;;5063722;27;95974;-63
2022/03/22 10:00:52;;;;;;;1.83;1.15;;;19.70;80.50;;;;;;5056662;27;95887;-66
2022/03/22 10:03:23;;;;;;;5.57;1.35;;;19.70;80.50;;;;;;5065780;27;96132;-62
2022/03/22 10:06:02;;;;;;;;;;;19.70;80.30;;;;;;5059540;27;96417;-65
2022/03/22 10:08:37;;;;;;;5.65;1.38;;;19.70;80.40;;;;;;5064694;27;96013;-61
2022/03/22 10:11:08;;;;;;;3.45;1.45;;;19.80;80.20;;;;;;5056042;27;95590;-65
2022/03/22 10:13:57;;;;;;;5.20;1.50;;;19.70;80.00;;;;;;5059696;27;95909;-65
2022/03/22 10:16:29;;;;;;;3.45;1.10;;;19.70;80.20;;;;;;5043223;27;96148;-65
2022/03/22 10:18:59;;;;;;;2.85;2.08;;;19.70;80.20;;;;;;5043993;27;96552;-65
2022/03/22 10:21:29;;;;;;;3.00;1.40;;;19.70;80.10;;;;;;5064435;27;95621;-61
2022/03/22 10:23:59;;;;;;;3.40;1.80;;;19.70;80.20;;;;;;5037996;27;95494;-65
2022/03/22 10:26:34;;;;;;;2.78;1.33;;;19.70;80.90;;;;;;5059506;27;95923;-65
2022/03/22 10:29:07;;;;;;;5.72;1.20;;;19.70;80.40;;;;;;5062683;27;95948;-64
2022/03/22 10:31:40;;;;;;;1.23;1.00;;;19.60;80.20;;;;;;5049646;27;95979;-65
2022/03/22 10:34:13;;;;;;;4.80;1.27;;;19.60;80.50;;;;;;5049153;27;95701;-65
2022/03/22 10:36:46;;;;;;;2.75;1.33;;;19.60;80.20;;;;;;5053565;27;96220;-66
2022/03/22 10:39:16;;;;;;;2.93;0.83;;;19.60;80.40;;;;;;5052766;27;96213;-65
2022/03/22 10:41:48;;;;;;;3.60;1.38;;;19.70;80.60;;;;;;5051091;27;98340;-65
2022/03/22 10:44:23;;;;;;;3.33;1.63;;;19.70;80.60;;;;;;5054766;27;95896;-61
2022/03/22 10:46:54;;;;;;;4.32;1.48;;;19.60;80.70;;;;;;5053039;27;96170;-66
2022/03/22 10:49:25;;;;;;;3.63;1.23;;;19.70;80.80;;;;;;5065707;27;95855;-66
2022/03/22 10:52:20;;;;;;;3.58;1.25;;;19.60;80.70;;;;;;5054818;27;95908;-65
2022/03/22 10:54:51;;;;;;;2.17;0.95;;;19.60;80.90;;;;;;5061330;27;95340;-61
2022/03/22 10:57:32;;;;;;;4.35;1.35;;;19.60;80.90;;;;;;5064265;27;95895;-65
2022/03/22 11:00:08;;;;;;;3.07;1.20;;;19.50;80.80;;;;;;5048026;27;95790;-61
2022/03/22 11:02:47;;;;;;;3.08;1.20;;;19.60;80.80;;;;;;5061446;27;95445;-62
2022/03/22 11:05:20;;;;;;;1.77;1.00;;;19.50;80.70;;;;;;5066084;27;96035;-65
2022/03/22 11:07:54;;;;;;;3.72;1.35;;;19.50;80.80;;;;;;5065112;27;96575;-65
2022/03/22 11:10:29;;;;;;;2.28;1.10;;;19.50;80.80;;;;;;5074090;27;95873;-65
2022/03/22 11:13:02;;;;;;;4.65;1.05;;;19.50;81.10;;;;;;5051575;27;95990;-65
2022/03/22 11:15:38;;;;;;;6.32;1.35;;;19.40;80.80;;;;;;5040143;27;97205;-66
2022/03/22 11:18:11;;;;;;;5.82;1.38;;;19.40;80.90;;;;;;5054541;27;102312;-66
2022/03/22 11:20:56;;;;;;;2.60;0.98;;;19.40;81.10;;;;;;5063665;27;96006;-65
2022/03/22 11:23:31;;;;;;;4.60;1.98;;;19.40;81.00;;;;;;5061613;27;95878;-65
2022/03/22 11:26:13;;;;;;;4.13;1.20;;;19.40;81.00;;;;;;5068408;27;95767;-66
2022/03/22 11:28:46;;;;;;;6.03;1.10;;;19.40;81.00;;;;;;5056907;27;95856;-66
2022/03/22 11:31:28;;;;;;;2.72;1.02;;;19.40;80.80;;;;;;5050384;27;97675;-66
2022/03/22 11:34:09;;;;;;;2.83;0.93;;;19.40;81.00;;;;;;5067052;27;95799;-65
2022/03/22 11:36:48;;;;;;;2.30;0.80;;;19.40;81.20;;;;;;5066325;27;95801;-66
2022/03/22 11:42:37;;;;;;;3.38;1.00;;;19.40;81.00;;;;;;4988427;28;96922;-66
2022/03/22 11:45:12;;;;;;;3.35;0.70;;;19.40;81.00;;;;;;4978917;28;95506;-62
2022/03/22 11:47:45;;;;;;;3.13;0.90;;;19.30;76.40;;;;;;5031973;27;95856;-62
2022/03/22 11:50:20;;;;;;;3.45;0.90;;;19.40;80.90;;;;;;5055328;27;96007;-66
2022/03/22 11:52:58;;;;;;;1.92;0.90;;;19.30;81.20;;;;;;5056025;27;95741;-66
2022/03/22 11:55:29;;;;;;;1.20;0.70;;;19.30;81.20;;;;;;5056284;27;95678;-66
2022/03/22 11:58:10;;;;;;;1.40;1.20;;;19.30;81.20;;;;;;5054011;27;95228;-62
2022/03/22 12:00:55;;;;;;;2.13;1.30;;;19.40;76.90;;;;;;5043707;27;98116;-66
2022/03/22 12:03:32;;;;;;;1.90;1.17;;;19.30;81.60;;;;;;5039543;27;96242;-66
2022/03/22 12:06:19;;;;;;;2.28;0.90;;;19.30;81.60;;;;;;5043108;27;95433;-66
2022/03/22 12:08:50;;;;;;;1.67;1.08;;;19.30;81.10;;;;;;5037449;27;96585;-66
2022/03/22 12:11:21;;;;;;;7.50;2.22;;;19.30;81.20;;;;;;5044338;27;95852;-65
2022/03/22 12:13:53;;;;;;;1.70;0.90;;;19.30;81.00;;;;;;5036373;27;95822;-65
2022/03/22 12:16:28;;;;;;;3.50;0.90;;;19.20;81.20;;;;;;5016277;27;95604;-65
2022/03/22 12:19:04;;;;;;;1.27;0.77;;;19.30;80.70;;;;;;5037863;27;96964;-66
2022/03/22 12:21:36;;;;;;;3.38;1.00;;;19.30;80.80;;;;;;5038345;27;96389;-66
2022/03/22 12:24:07;;;;;;;2.25;0.85;;;19.30;80.70;;;;;;5036008;27;95965;-66
2022/03/22 12:26:40;;;;;;;1.70;0.70;;;19.20;80.70;;;;;;5039335;27;95322;-65
2022/03/22 12:29:11;;;;;;;2.85;0.70;;;19.20;80.70;;;;;;5046123;27;95420;-63
2022/03/22 12:31:54;;;;;;;1.40;0.90;;;19.30;81.10;;;;;;5040905;27;96736;-67
2022/03/22 12:34:27;;;;;;;2.22;1.10;;;19.70;80.50;;;;;;5048070;27;97497;-66
2022/03/22 12:36:58;;;;;;;1.00;0.70;;;20.00;80.20;;;;;;5044967;27;95704;-66
2022/03/22 12:39:30;;;;;;;3.05;0.65;;;20.10;79.50;;;;;;5042976;27;96015;-65
2022/03/22 12:42:02;;;;;;;2.78;0.93;;;20.30;79.30;;;;;;5044259;27;96522;-62
2022/03/22 12:44:34;;;;;;;1.20;0.90;;;20.40;79.20;;;;;;5051501;27;95932;-61
2022/03/22 12:47:25;;;;;;;1.45;0.60;;;20.50;78.80;;;;;;5039331;27;95634;-70
2022/03/22 12:49:55;;;;;;;;;;;20.70;78.60;;;;;;5043316;27;95329;-64
2022/03/22 12:52:28;;;;;;;1.45;0.88;;;20.80;78.30;;;;;;5051748;27;95238;-69
2022/03/22 12:54:59;;;;;;;0.68;0.68;;;20.80;78.30;;;;;;5047562;27;96019;-67
2022/03/22 12:57:31;;;;;;;0.80;0.75;;;20.90;78.10;;;;;;5048498;27;95766;-66
2022/03/22 13:00:03;;;;;;;2.72;1.08;;;21.00;78.00;;;;;;5045576;27;95604;-66
2022/03/22 13:02:40;;;;;;;0.98;0.70;;;21.10;78.00;;;;;;5067017;27;95885;-66
2022/03/22 13:05:10;;;;;;;1.92;0.70;;;21.10;77.60;;;;;;5063709;27;96957;-67
2022/03/22 13:07:46;;;;;;;1.02;0.60;;;21.20;77.60;;;;;;5062470;27;96075;-65
2022/03/22 13:15:01;;;;;;;1.88;0.90;;;21.30;77.10;;;;;;5069481;27;95176;-68
2022/03/22 13:16:24;;;;;;;0.90;0.85;;;21.30;77.20;;;;;;5039635;27;99796;-66
2022/03/22 13:19:01;;;;;;;1.05;0.60;;;21.40;77.00;;;;;;5033827;27;95695;-68
2022/03/22 13:21:33;;;;;;;2.17;0.60;;;21.40;76.80;;;;;;5050041;27;95286;-68
2022/03/22 13:24:03;;;;;;;0.60;0.60;;;21.50;76.10;;;;;;5032193;27;96056;-67
2022/03/22 13:26:39;;;;;;;0.85;0.70;;;21.60;76.90;;;;;;5044113;27;95634;-66
2022/03/22 13:29:20;;;;;;;0.90;0.63;;;21.60;75.90;;;;;;5044325;27;95819;-67
2022/03/22 13:32:00;;;;;;;1.20;0.90;;;21.90;75.90;;;;;;5051894;27;95161;-67
2022/03/22 13:34:33;;;;;;;0.47;0.47;;;22.10;75.30;;;;;;5069283;27;95847;-66
2022/03/22 13:37:14;;;;;;;0.77;0.60;;;22.30;74.70;;;;;;5068592;27;96021;-67
2022/03/22 13:39:44;;;;;;;;;;;22.50;74.20;;;;;;5065631;27;95610;-66
2022/03/22 13:42:21;;;;;;;1.33;0.68;;;22.60;73.80;;;;;;5072809;27;95873;-67
2022/03/22 13:45:01;;;;;;;1.33;0.90;;;22.70;73.10;;;;;;5068457;27;96756;-66
2022/03/22 13:47:42;;;;;;;1.00;0.82;;;22.60;72.40;;;;;;5042222;27;96338;-65
2022/03/22 13:50:18;;;;;;;0.88;0.85;;;22.30;72.90;;;;;;5067380;27;95583;-65